Time;durP1;ratioP1;P1;durP2;ratioP2;P2;SDS_P1;SDS_P2;PMS_P1;PMS_P2;Temp;Humidity;BMP_temperature;BMP_pressure;BME280_temperature;BME280_humidity;BME280_pressure;Samples;Min_cycle;Max_cycle;Signal;HPM_P1;HPM_P2
2022/06/03 00:01:06;;;;;;;10.05;6.70;;;11.60;99.90;;;;;;4975620;28;20043;-60
2022/06/03 00:03:50;;;;;;;7.93;5.32;;;11.60;99.90;;;;;;4970748;28;20069;-61
2022/06/03 00:06:39;;;;;;;10.40;6.53;;;11.50;99.90;;;;;;4967560;28;20085;-58
2022/06/03 00:09:27;;;;;;;9.45;6.32;;;11.40;99.90;;;;;;4968148;28;20043;-60
2022/06/03 00:12:08;;;;;;;16.90;6.15;;;11.40;99.90;;;;;;4962437;28;20101;-62
2022/06/03 00:15:07;;;;;;;9.90;6.35;;;11.40;99.90;;;;;;4972696;28;20409;-60
2022/06/03 00:18:08;;;;;;;7.35;4.78;;;11.30;99.90;;;;;;4966074;28;20050;-60
2022/06/03 00:20:58;;;;;;;11.80;5.75;;;11.40;99.90;;;;;;4966335;28;20089;-60
2022/06/03 00:23:41;;;;;;;11.55;7.03;;;11.40;99.90;;;;;;4965773;28;20130;-61
2022/06/03 00:26:29;;;;;;;10.50;6.78;;;11.30;99.90;;;;;;4966907;28;20096;-60
2022/06/03 00:28:57;;;;;;;12.75;6.78;;;11.30;99.90;;;;;;4967721;28;20073;-60
2022/06/03 00:32:01;;;;;;;12.00;6.30;;;11.20;99.90;;;;;;4969053;28;20539;-62
2022/06/03 00:34:54;;;;;;;9.25;6.13;;;11.20;99.90;;;;;;4962451;28;20043;-60
2022/06/03 00:37:19;;;;;;;12.20;7.32;;;11.20;99.90;;;;;;4970429;28;20500;-59
2022/06/03 00:39:54;;;;;;;9.07;6.20;;;11.10;99.90;;;;;;4966562;28;20055;-61
2022/06/03 00:42:23;;;;;;;10.73;6.93;;;11.10;99.90;;;;;;4963280;28;20571;-61
2022/06/03 00:45:13;;;;;;;13.02;6.20;;;11.10;99.90;;;;;;4970861;28;20047;-61
2022/06/03 00:48:03;;;;;;;10.40;6.00;;;11.10;99.90;;;;;;4960398;28;20237;-59
2022/06/03 00:50:35;;;;;;;13.07;6.45;;;11.00;99.90;;;;;;4967599;28;20682;-60
2022/06/03 00:53:06;;;;;;;10.27;6.78;;;11.00;99.90;;;;;;4968913;28;20046;-61
2022/06/03 00:56:10;;;;;;;10.35;6.88;;;11.00;99.90;;;;;;4969696;28;20038;-62
2022/06/03 00:59:04;;;;;;;7.70;6.10;;;11.00;99.90;;;;;;4977386;28;20038;-59
2022/06/03 01:01:59;;;;;;;7.38;5.03;;;11.00;99.90;;;;;;4976553;28;20052;-62
2022/06/03 01:04:57;;;;;;;8.48;6.00;;;10.90;99.90;;;;;;4978643;28;20225;-60
2022/06/03 01:07:45;;;;;;;12.23;8.45;;;10.90;99.90;;;;;;4987841;28;20512;-60
2022/06/03 01:10:14;;;;;;;7.60;6.47;;;10.90;99.90;;;;;;4969112;28;20109;-58
2022/06/03 01:12:51;;;;;;;7.13;5.40;;;10.90;99.90;;;;;;4967564;28;20120;-57
2022/06/03 01:15:46;;;;;;;11.45;6.82;;;11.00;99.90;;;;;;4964956;28;20042;-57
2022/06/03 01:18:30;;;;;;;7.97;5.65;;;11.00;99.90;;;;;;4963105;28;20279;-58
2022/06/03 01:21:09;;;;;;;10.30;6.55;;;11.00;99.90;;;;;;4971278;28;20046;-58
2022/06/03 01:24:17;;;;;;;9.55;6.40;;;11.00;99.90;;;;;;4963420;28;20077;-58
2022/06/03 01:27:10;;;;;;;6.72;5.93;;;11.00;99.90;;;;;;4969478;28;20509;-58
2022/06/03 01:29:59;;;;;;;8.45;6.97;;;11.00;99.90;;;;;;4968360;28;20045;-57
2022/06/03 01:32:43;;;;;;;11.52;7.38;;;11.00;99.90;;;;;;4961978;28;20543;-58
2022/06/03 01:35:28;;;;;;;8.98;6.45;;;10.90;99.90;;;;;;4964172;28;20513;-58
2022/06/03 01:38:03;;;;;;;7.78;5.95;;;10.90;99.90;;;;;;4972366;28;20047;-58
2022/06/03 01:41:06;;;;;;;11.50;7.55;;;10.90;99.90;;;;;;4966581;28;20203;-58
2022/06/03 01:44:06;;;;;;;14.93;6.88;;;10.90;99.90;;;;;;4964754;28;20166;-58
2022/06/03 01:46:43;;;;;;;10.07;6.90;;;10.80;99.90;;;;;;4968035;28;20728;-57
2022/06/03 01:49:42;;;;;;;7.75;6.65;;;10.80;99.90;;;;;;4970053;28;20154;-58
2022/06/03 01:52:10;;;;;;;14.07;8.18;;;10.80;99.90;;;;;;4974931;28;20574;-58
2022/06/03 01:54:48;;;;;;;14.05;8.63;;;10.80;99.90;;;;;;4973183;28;20126;-58
2022/06/03 01:58:05;;;;;;;10.95;7.15;;;10.80;99.90;;;;;;4977262;28;20536;-58
2022/06/03 02:00:47;;;;;;;9.32;6.85;;;10.80;99.90;;;;;;4941029;28;20058;-58
2022/06/03 02:03:45;;;;;;;13.70;6.68;;;10.80;99.90;;;;;;4979930;28;20090;-56
2022/06/03 02:06:32;;;;;;;13.50;8.60;;;10.80;99.90;;;;;;4965580;28;20058;-58
2022/06/03 02:09:10;;;;;;;11.68;8.25;;;10.80;99.90;;;;;;4964911;28;20681;-58
2022/06/03 02:12:06;;;;;;;11.15;7.00;;;10.80;99.90;;;;;;4963007;28;20405;-58
2022/06/03 02:15:09;;;;;;;9.35;7.82;;;10.80;99.90;;;;;;4969363;28;20045;-59
2022/06/03 02:18:12;;;;;;;10.05;7.70;;;10.80;99.90;;;;;;4971923;28;20521;-57
2022/06/03 02:20:50;;;;;;;9.45;7.07;;;10.80;99.90;;;;;;4965863;28;20049;-58
2022/06/03 02:23:31;;;;;;;17.63;8.30;;;10.80;99.90;;;;;;4978795;28;20041;-58
2022/06/03 02:26:21;;;;;;;10.57;7.50;;;10.70;99.90;;;;;;4967480;28;20049;-59
2022/06/03 02:32:17;;;;;;;8.40;7.15;;;10.70;99.90;;;;;;4972941;28;20042;-57
2022/06/03 02:35:20;;;;;;;14.35;7.78;;;10.70;99.90;;;;;;4974124;28;20045;-57
2022/06/03 02:38:22;;;;;;;14.15;8.00;;;10.70;99.90;;;;;;4971609;28;20130;-57
2022/06/03 02:40:52;;;;;;;11.25;8.25;;;10.70;99.90;;;;;;4967248;28;20046;-57
2022/06/03 02:43:55;;;;;;;10.32;7.93;;;10.70;99.90;;;;;;4970417;28;20118;-56
2022/06/03 02:47:06;;;;;;;11.25;8.00;;;10.70;99.90;;;;;;4962905;28;20038;-58
2022/06/03 02:49:31;;;;;;;14.27;8.52;;;10.70;99.90;;;;;;4972948;28;20038;-58
2022/06/03 02:52:03;;;;;;;10.27;7.65;;;10.70;99.90;;;;;;4970030;28;20066;-57
2022/06/03 02:54:53;;;;;;;10.85;8.07;;;10.70;99.90;;;;;;4970518;28;20046;-57
2022/06/03 02:57:37;;;;;;;15.25;8.98;;;10.70;99.90;;;;;;4969494;28;20121;-58
2022/06/03 03:00:12;;;;;;;17.65;9.68;;;10.70;99.90;;;;;;4970149;28;20397;-58
2022/06/03 03:03:43;;;;;;;14.10;9.02;;;10.60;99.90;;;;;;4963227;28;20129;-58
2022/06/03 03:06:23;;;;;;;12.82;7.90;;;10.60;99.90;;;;;;4893855;29;20066;-58
2022/06/03 03:09:17;;;;;;;12.07;9.13;;;10.60;99.90;;;;;;4906941;29;20052;-58
2022/06/03 03:11:51;;;;;;;9.52;7.60;;;10.60;99.90;;;;;;4948455;28;20141;-58
2022/06/03 03:14:57;;;;;;;15.35;9.10;;;10.60;99.90;;;;;;4979036;28;20038;-58
2022/06/03 03:17:58;;;;;;;17.55;10.65;;;10.60;99.90;;;;;;4957519;28;20472;-58
2022/06/03 03:20:36;;;;;;;15.93;10.68;;;10.50;99.90;;;;;;4951651;28;20054;-57
2022/06/03 03:23:29;;;;;;;14.68;11.02;;;10.50;99.90;;;;;;4961819;28;20050;-58
2022/06/03 03:26:14;;;;;;;16.33;9.85;;;10.50;99.90;;;;;;4965709;28;20049;-59
2022/06/03 03:29:05;;;;;;;17.48;10.38;;;10.50;99.90;;;;;;4963108;28;20057;-57
2022/06/03 03:31:36;;;;;;;13.25;8.77;;;10.50;99.90;;;;;;4963254;28;20078;-57
2022/06/03 03:34:18;;;;;;;11.60;8.70;;;10.40;99.90;;;;;;4965244;28;20688;-58
2022/06/03 03:37:19;;;;;;;14.50;9.60;;;10.40;99.90;;;;;;4963337;28;20253;-59
2022/06/03 03:40:23;;;;;;;12.13;9.30;;;10.40;99.90;;;;;;4969264;28;20038;-59
2022/06/03 03:43:10;;;;;;;16.30;10.43;;;10.40;99.90;;;;;;4969401;28;20121;-58
2022/06/03 03:46:07;;;;;;;11.15;8.63;;;10.30;99.90;;;;;;4960839;28;20380;-58
2022/06/03 03:48:57;;;;;;;15.77;9.02;;;10.30;99.90;;;;;;4952561;28;20054;-58
2022/06/03 03:51:44;;;;;;;16.25;10.07;;;10.30;99.90;;;;;;4967565;28;20046;-59
2022/06/03 03:54:47;;;;;;;13.93;9.70;;;10.30;99.90;;;;;;4967397;28;20046;-58
2022/06/03 03:57:30;;;;;;;18.88;9.95;;;10.30;99.90;;;;;;4971672;28;20292;-58
2022/06/03 04:00:09;;;;;;;9.95;7.47;;;10.20;99.90;;;;;;4987140;28;20216;-58
2022/06/03 04:02:47;;;;;;;14.95;9.35;;;10.20;99.90;;;;;;4963748;28;20050;-58
2022/06/03 04:05:45;;;;;;;12.23;8.50;;;10.20;99.90;;;;;;4973110;28;20136;-58
2022/06/03 04:08:47;;;;;;;18.98;9.52;;;10.20;99.90;;;;;;4938021;28;20054;-57
2022/06/03 04:11:31;;;;;;;10.70;8.63;;;10.20;99.90;;;;;;4934147;29;20059;-58
2022/06/03 04:14:15;;;;;;;;;;;10.20;99.90;;;;;;4972442;28;20050;-58
2022/06/03 04:17:06;;;;;;;17.92;8.30;;;10.20;99.90;;;;;;4978249;28;19928;-58
2022/06/03 04:19:55;;;;;;;11.32;8.95;;;10.20;99.90;;;;;;4972898;28;20515;-58
2022/06/03 04:22:55;;;;;;;11.82;8.48;;;10.30;99.90;;;;;;4974290;28;20071;-58
2022/06/03 04:25:40;;;;;;;13.55;8.73;;;10.30;99.90;;;;;;4971225;28;20045;-57
2022/06/03 04:28:43;;;;;;;12.65;8.88;;;10.30;99.90;;;;;;4988024;28;20069;-58
2022/06/03 04:31:43;;;;;;;12.73;8.70;;;10.30;99.90;;;;;;4972482;28;20106;-58
2022/06/03 04:34:13;;;;;;;17.25;8.90;;;10.40;99.90;;;;;;4979801;28;20062;-58
2022/06/03 04:37:17;;;;;;;13.10;8.73;;;10.40;99.90;;;;;;4972969;28;20391;-58
2022/06/03 04:40:04;;;;;;;12.05;8.68;;;10.50;99.90;;;;;;4966872;28;20536;-57
2022/06/03 04:42:51;;;;;;;15.50;9.95;;;10.50;99.90;;;;;;4965771;28;20042;-58
2022/06/03 04:45:28;;;;;;;13.40;9.45;;;10.60;99.90;;;;;;4959006;28;20125;-57
2022/06/03 04:48:09;;;;;;;15.32;9.73;;;10.60;99.90;;;;;;4967334;28;20133;-57
2022/06/03 04:50:59;;;;;;;16.52;10.10;;;10.70;99.90;;;;;;4973563;28;20043;-57
2022/06/03 04:54:03;;;;;;;14.73;9.38;;;10.70;99.90;;;;;;4963368;28;20070;-59
2022/06/03 04:57:05;;;;;;;14.65;8.77;;;10.80;99.90;;;;;;4966235;28;20038;-57
2022/06/03 04:59:55;;;;;;;15.07;9.63;;;10.80;99.90;;;;;;4966715;28;20049;-58
2022/06/03 05:02:42;;;;;;;12.88;8.07;;;10.90;99.90;;;;;;4967524;28;20046;-59
2022/06/03 05:05:32;;;;;;;15.93;8.95;;;11.00;99.90;;;;;;4964808;28;20420;-58
2022/06/03 05:08:13;;;;;;;12.82;8.68;;;11.10;99.90;;;;;;4979700;28;20046;-58
2022/06/03 05:11:14;;;;;;;15.23;9.57;;;11.10;99.90;;;;;;5000275;23;20045;-55
2022/06/03 05:14:08;;;;;;;13.15;9.75;;;11.30;99.90;;;;;;4973296;28;20054;-56
2022/06/03 05:17:09;;;;;;;12.15;9.07;;;11.30;99.90;;;;;;4981108;28;20128;-56
2022/06/03 05:19:59;;;;;;;11.63;8.15;;;11.40;99.90;;;;;;4967429;28;20584;-56
2022/06/03 05:22:44;;;;;;;13.25;8.55;;;11.50;99.90;;;;;;4969504;28;20056;-55
2022/06/03 05:25:24;;;;;;;12.18;8.60;;;11.60;99.90;;;;;;4963069;28;20053;-57
2022/06/03 05:28:18;;;;;;;14.40;9.13;;;11.70;99.90;;;;;;4969803;28;20038;-53
2022/06/03 05:31:22;;;;;;;10.77;7.82;;;11.80;99.90;;;;;;4943519;28;20042;-58
2022/06/03 05:34:12;;;;;;;13.55;8.45;;;11.90;99.90;;;;;;4967870;28;20046;-57
2022/06/03 05:36:56;;;;;;;10.80;8.25;;;11.90;99.90;;;;;;4963443;28;20460;-53
2022/06/03 05:40:06;;;;;;;13.95;7.63;;;12.00;99.90;;;;;;4975236;28;20057;-55
2022/06/03 05:42:38;;;;;;;9.25;7.82;;;12.10;99.90;;;;;;4971541;28;20097;-57
2022/06/03 05:45:12;;;;;;;8.32;7.22;;;12.20;99.90;;;;;;4979044;28;20041;-57
2022/06/03 05:47:51;;;;;;;8.98;7.13;;;12.30;99.90;;;;;;4965948;28;20265;-58
2022/06/03 05:50:35;;;;;;;10.95;6.65;;;12.40;99.90;;;;;;4967885;28;20115;-54
2022/06/03 05:53:45;;;;;;;7.97;7.03;;;12.40;99.90;;;;;;4955744;28;20042;-55
2022/06/03 05:56:31;;;;;;;10.52;6.30;;;12.60;99.90;;;;;;4919460;29;20039;-58
2022/06/03 05:59:16;;;;;;;9.80;6.43;;;12.60;99.90;;;;;;4914171;29;20116;-53
2022/06/03 06:02:00;;;;;;;7.93;6.82;;;12.70;99.90;;;;;;4960046;28;20047;-54
2022/06/03 06:04:26;;;;;;;7.43;6.65;;;12.80;99.90;;;;;;4974479;28;20077;-56
2022/06/03 06:07:08;;;;;;;9.45;5.78;;;12.90;99.90;;;;;;4969899;28;20046;-56
2022/06/03 06:09:52;;;;;;;8.23;6.03;;;13.00;99.90;;;;;;4974001;28;20244;-57
2022/06/03 06:12:39;;;;;;;7.25;4.85;;;13.10;99.90;;;;;;4972442;28;20378;-53
2022/06/03 06:15:30;;;;;;;6.85;5.40;;;13.10;99.90;;;;;;4972825;28;20412;-57
2022/06/03 06:18:02;;;;;;;7.25;5.57;;;13.30;99.90;;;;;;4968232;28;20034;-58
2022/06/03 06:20:34;;;;;;;7.70;4.90;;;13.40;99.90;;;;;;4971186;28;20141;-53
2022/06/03 06:23:10;;;;;;;7.32;4.70;;;13.50;99.90;;;;;;4963492;28;20134;-58
2022/06/03 06:25:39;;;;;;;5.00;4.50;;;13.60;99.90;;;;;;4966424;28;20055;-57
2022/06/03 06:28:34;;;;;;;6.07;4.63;;;13.70;99.90;;;;;;4963136;28;20038;-58
2022/06/03 06:31:14;;;;;;;7.93;4.15;;;13.80;99.90;;;;;;4968591;28;20465;-56
2022/06/03 06:34:08;;;;;;;7.45;4.07;;;13.90;99.90;;;;;;4962403;28;20141;-59
2022/06/03 06:37:13;;;;;;;7.30;3.55;;;14.00;99.90;;;;;;4963510;28;20046;-58
2022/06/03 06:40:01;;;;;;;6.40;4.18;;;14.10;99.90;;;;;;4948851;28;20058;-58
2022/06/03 06:42:44;;;;;;;5.43;3.33;;;14.30;99.90;;;;;;4959701;28;20479;-58
2022/06/03 06:45:23;;;;;;;4.78;3.20;;;14.30;99.90;;;;;;4963265;28;20561;-59
2022/06/03 06:48:03;;;;;;;4.50;2.83;;;14.50;99.90;;;;;;4963490;28;20302;-55
2022/06/03 06:50:45;;;;;;;4.25;2.55;;;14.60;99.90;;;;;;4968265;28;20050;-58
2022/06/03 06:53:35;;;;;;;5.35;3.10;;;14.70;99.90;;;;;;4982134;28;20468;-56
2022/06/03 06:56:01;;;;;;;5.13;2.75;;;14.80;99.90;;;;;;4964735;28;20450;-59
2022/06/03 06:58:52;;;;;;;3.72;2.97;;;15.00;99.90;;;;;;4967872;28;20791;-57
2022/06/03 07:01:34;;;;;;;5.30;2.95;;;15.10;99.90;;;;;;4958238;28;20050;-59
2022/06/03 07:04:27;;;;;;;5.47;2.45;;;15.20;99.90;;;;;;4984776;28;20058;-59
2022/06/03 07:07:05;;;;;;;4.30;2.38;;;15.30;99.90;;;;;;4972820;28;20042;-57
2022/06/03 07:09:53;;;;;;;3.42;2.50;;;15.40;99.90;;;;;;4970246;28;20056;-57
2022/06/03 07:12:27;;;;;;;6.88;2.00;;;15.60;99.90;;;;;;4967243;28;20058;-57
2022/06/03 07:15:27;;;;;;;3.95;2.40;;;15.60;99.90;;;;;;4977726;28;20097;-59
2022/06/03 07:21:26;;;;;;;4.30;2.10;;;15.80;99.90;;;;;;4973221;28;20122;-58
2022/06/03 07:23:56;;;;;;;4.22;2.28;;;15.90;99.90;;;;;;4985561;28;20054;-59
2022/06/03 07:26:37;;;;;;;4.75;2.05;;;15.90;99.90;;;;;;4975696;28;20615;-58
2022/06/03 07:29:32;;;;;;;4.63;2.08;;;16.00;99.90;;;;;;4982580;28;20123;-57
2022/06/03 07:32:08;;;;;;;7.63;2.15;;;16.10;99.90;;;;;;4959411;28;20062;-57
2022/06/03 07:34:56;;;;;;;3.85;2.08;;;16.10;99.90;;;;;;4969867;28;20045;-59
2022/06/03 07:37:49;;;;;;;3.33;2.03;;;16.20;99.90;;;;;;4971381;28;20149;-57
2022/06/03 07:40:38;;;;;;;3.60;1.60;;;16.30;99.90;;;;;;4956578;28;20039;-57
2022/06/03 07:43:34;;;;;;;3.30;2.05;;;16.40;99.00;;;;;;4970461;28;20122;-57
2022/06/03 07:46:08;;;;;;;2.47;1.70;;;16.50;99.50;;;;;;4974557;28;20050;-56
2022/06/03 07:48:36;;;;;;;3.85;2.00;;;16.60;98.30;;;;;;4978548;28;20046;-54
2022/06/03 07:51:31;;;;;;;4.22;1.63;;;16.50;98.30;;;;;;4975200;28;20467;-56
2022/06/03 07:54:41;;;;;;;2.90;1.73;;;16.70;99.00;;;;;;4985297;28;20046;-54
2022/06/03 07:57:19;;;;;;;4.63;1.80;;;16.80;98.60;;;;;;4914781;29;20259;-57
2022/06/03 07:59:45;;;;;;;5.82;1.80;;;17.00;99.10;;;;;;4987059;28;20086;-57
2022/06/03 08:02:11;;;;;;;6.18;1.67;;;17.10;98.00;;;;;;4984676;28;20069;-55
2022/06/03 08:04:38;;;;;;;2.95;1.55;;;17.20;96.90;;;;;;4976899;28;20078;-55
2022/06/03 08:12:39;;;;;;;3.72;1.58;;;17.30;97.40;;;;;;4958945;28;20050;-57
2022/06/03 08:15:21;;;;;;;4.18;1.55;;;17.40;97.30;;;;;;4975713;28;20097;-56
2022/06/03 08:17:49;;;;;;;2.85;1.45;;;17.60;97.30;;;;;;4966469;28;20113;-56
2022/06/03 08:20:19;;;;;;;3.33;1.70;;;17.70;96.70;;;;;;4962216;28;20694;-57
2022/06/03 08:22:46;;;;;;;2.38;1.50;;;17.70;95.50;;;;;;4967799;28;20050;-55
2022/06/03 08:25:20;;;;;;;2.70;1.50;;;17.80;96.50;;;;;;4961372;28;20109;-58
2022/06/03 08:27:48;;;;;;;3.17;1.90;;;17.90;97.50;;;;;;4971905;28;20778;-59
2022/06/03 08:30:21;;;;;;;3.08;1.98;;;18.10;97.00;;;;;;4964533;28;20045;-56
2022/06/03 08:32:55;;;;;;;5.90;1.90;;;18.20;96.70;;;;;;4962329;28;20055;-58
2022/06/03 08:35:27;;;;;;;2.85;1.70;;;18.20;96.00;;;;;;4953496;28;20434;-56
2022/06/03 08:38:01;;;;;;;4.00;1.60;;;18.30;96.10;;;;;;4981588;28;20042;-56
2022/06/03 08:40:36;;;;;;;3.90;1.75;;;18.40;96.00;;;;;;4972549;28;20047;-57
2022/06/03 08:43:12;;;;;;;4.35;1.95;;;18.50;96.50;;;;;;4975675;28;20038;-58
2022/06/03 08:45:55;;;;;;;4.13;2.08;;;18.50;96.80;;;;;;4969606;28;20053;-56
2022/06/03 08:48:26;;;;;;;4.22;1.90;;;18.60;96.20;;;;;;4971951;28;20054;-56
2022/06/03 08:50:59;;;;;;;4.35;2.13;;;18.60;96.80;;;;;;4969332;28;20591;-57
2022/06/03 08:53:43;;;;;;;7.10;2.40;;;18.70;96.40;;;;;;4974957;28;20039;-56
2022/06/03 08:56:14;;;;;;;4.63;2.03;;;18.80;95.10;;;;;;4979046;28;20391;-57
2022/06/03 08:59:02;;;;;;;3.97;1.95;;;18.90;95.80;;;;;;4963031;28;20057;-58
2022/06/03 09:01:39;;;;;;;5.47;1.80;;;18.90;94.90;;;;;;4977406;28;20054;-56
2022/06/03 09:04:20;;;;;;;2.95;1.88;;;18.90;94.90;;;;;;4970992;28;20042;-59
2022/06/03 09:07:14;;;;;;;2.22;1.52;;;19.10;95.70;;;;;;4972170;28;20040;-59
2022/06/03 09:09:45;;;;;;;3.58;1.50;;;19.30;95.10;;;;;;4967081;28;20053;-59
2022/06/03 09:12:19;;;;;;;5.43;1.98;;;19.40;95.00;;;;;;4968877;28;20046;-57
2022/06/03 09:14:49;;;;;;;3.50;1.65;;;19.50;95.00;;;;;;4974285;28;20043;-57
2022/06/03 09:17:41;;;;;;;4.07;1.92;;;19.70;94.80;;;;;;4978842;28;20046;-58
2022/06/03 09:20:15;;;;;;;5.53;1.85;;;19.70;93.90;;;;;;4991770;28;20050;-59
2022/06/03 09:22:44;;;;;;;3.15;1.95;;;19.70;93.60;;;;;;4980805;28;20121;-57
2022/06/03 09:25:14;;;;;;;5.28;1.83;;;19.70;92.80;;;;;;4983199;28;20089;-57
2022/06/03 09:27:41;;;;;;;3.45;1.83;;;19.70;92.90;;;;;;4959087;28;20046;-58
2022/06/03 09:30:09;;;;;;;3.63;2.33;;;19.80;93.20;;;;;;4974864;28;20038;-59
2022/06/03 09:32:44;;;;;;;3.45;1.55;;;20.00;93.10;;;;;;4975056;28;20157;-61
2022/06/03 09:35:19;;;;;;;9.50;2.78;;;20.10;92.80;;;;;;4973461;28;20526;-59
2022/06/03 09:37:55;;;;;;;2.88;1.90;;;20.30;92.10;;;;;;4971414;28;20388;-58
2022/06/03 09:40:23;;;;;;;3.80;2.00;;;20.40;92.20;;;;;;4968870;28;20498;-59
2022/06/03 09:43:01;;;;;;;3.17;1.80;;;20.30;90.10;;;;;;4981271;28;20501;-61
2022/06/03 09:45:28;;;;;;;2.13;1.90;;;20.10;91.10;;;;;;4980085;28;20042;-58
2022/06/03 09:47:55;;;;;;;2.88;1.60;;;20.20;91.50;;;;;;4987687;28;20046;-58
2022/06/03 09:50:23;;;;;;;6.55;2.10;;;20.30;91.00;;;;;;4987028;28;20176;-58
2022/06/03 09:52:49;;;;;;;2.78;1.75;;;20.40;90.60;;;;;;4985228;28;20497;-60
2022/06/03 09:55:48;;;;;;;3.90;2.15;;;20.40;90.70;;;;;;4956612;28;20042;-59
2022/06/03 09:58:17;;;;;;;3.80;1.90;;;20.50;89.60;;;;;;4966979;28;20429;-58
2022/06/03 10:00:48;;;;;;;4.00;2.30;;;20.50;90.70;;;;;;4969172;28;20106;-60
2022/06/03 10:03:14;;;;;;;3.85;1.80;;;20.60;89.80;;;;;;4972853;28;20039;-58
2022/06/03 10:05:42;;;;;;;3.28;2.10;;;20.50;90.00;;;;;;4974992;28;20058;-58
2022/06/03 10:08:10;;;;;;;3.72;2.30;;;20.70;90.80;;;;;;4986753;28;20057;-59
2022/06/03 10:13:21;;;;;;;3.78;2.50;;;20.90;89.40;;;;;;4966047;28;20502;-56
2022/06/03 10:16:00;;;;;;;3.05;2.30;;;20.90;88.80;;;;;;4989609;28;20050;-58
2022/06/03 10:18:46;;;;;;;4.90;2.10;;;21.00;86.10;;;;;;4986207;28;20131;-58
2022/06/03 10:21:12;;;;;;;6.05;2.10;;;21.10;87.30;;;;;;4970764;28;20042;-60
2022/06/03 10:23:43;;;;;;;4.50;2.25;;;21.00;89.30;;;;;;4975873;28;20540;-58
2022/06/03 10:26:22;;;;;;;4.38;2.70;;;21.20;87.30;;;;;;4977627;28;20555;-57
2022/06/03 10:28:50;;;;;;;4.47;2.40;;;21.20;85.30;;;;;;4983891;28;20521;-57
2022/06/03 10:31:20;;;;;;;3.63;2.75;;;21.30;85.40;;;;;;4964290;28;20149;-60
2022/06/03 10:33:56;;;;;;;3.97;2.83;;;21.40;85.30;;;;;;4984478;28;20070;-58
2022/06/03 10:36:33;;;;;;;3.30;2.70;;;21.50;85.70;;;;;;4971092;28;20046;-57
2022/06/03 10:38:59;;;;;;;5.65;2.47;;;21.50;85.30;;;;;;4976719;28;20046;-62
2022/06/03 10:41:51;;;;;;;5.15;2.60;;;21.60;87.60;;;;;;4964271;28;20632;-60
2022/06/03 10:44:21;;;;;;;6.13;2.90;;;21.60;84.40;;;;;;4966065;28;20065;-57
2022/06/03 10:46:53;;;;;;;4.93;2.47;;;21.70;87.00;;;;;;4958085;28;20053;-58
2022/06/03 10:49:20;;;;;;;3.13;2.22;;;21.70;82.00;;;;;;4973733;28;20618;-61
2022/06/03 11:02:48;;;;;;;4.50;2.47;;;22.10;83.00;;;;;;4969519;28;20039;-60
2022/06/03 11:05:27;;;;;;;5.07;2.65;;;22.30;83.00;;;;;;4970007;28;20038;-58
2022/06/03 11:08:04;;;;;;;5.85;3.30;;;22.10;82.70;;;;;;4970815;28;20413;-57
2022/06/03 11:10:36;;;;;;;4.13;2.45;;;22.00;80.00;;;;;;5005228;23;20038;-61
2022/06/03 11:13:05;;;;;;;3.42;2.20;;;22.00;76.00;;;;;;4982116;28;20096;-59
2022/06/03 11:15:38;;;;;;;4.15;2.08;;;21.90;76.30;;;;;;4984786;28;20303;-58
2022/06/03 11:18:19;;;;;;;3.25;2.58;;;22.10;78.40;;;;;;4984571;28;20038;-57
2022/06/03 11:20:48;;;;;;;6.10;2.88;;;22.30;77.70;;;;;;4987595;28;20030;-61
2022/06/03 11:23:16;;;;;;;3.42;2.15;;;22.30;77.70;;;;;;4981414;28;20133;-55
2022/06/03 11:25:46;;;;;;;4.45;2.00;;;22.20;78.70;;;;;;4984357;28;20112;-57
2022/06/03 11:28:15;;;;;;;4.75;2.28;;;22.30;79.90;;;;;;4991746;28;20057;-57
2022/06/03 11:31:09;;;;;;;7.07;2.80;;;22.30;78.40;;;;;;4986725;28;20045;-62
2022/06/03 11:34:04;;;;;;;3.30;2.15;;;22.20;77.30;;;;;;4985642;28;20128;-57
2022/06/03 11:36:38;;;;;;;2.95;2.15;;;22.40;80.40;;;;;;4978919;28;20043;-58
2022/06/03 11:39:25;;;;;;;3.67;2.42;;;22.60;77.20;;;;;;4971698;28;20401;-58
2022/06/03 11:42:01;;;;;;;3.78;2.50;;;22.40;72.40;;;;;;4981199;28;20050;-62
2022/06/03 11:44:38;;;;;;;5.15;2.45;;;22.20;75.00;;;;;;4976841;28;20046;-59
2022/06/03 11:47:14;;;;;;;3.38;2.17;;;22.20;76.60;;;;;;4988965;28;20045;-57
2022/06/03 11:49:40;;;;;;;5.13;2.13;;;22.30;76.80;;;;;;4980981;28;20034;-58
2022/06/03 11:52:06;;;;;;;4.80;2.50;;;22.40;77.90;;;;;;4986863;28;20105;-68
2022/06/03 11:54:32;;;;;;;4.28;2.10;;;22.20;74.90;;;;;;4981741;28;20043;-61
2022/06/03 11:57:00;;;;;;;4.15;2.08;;;22.40;76.80;;;;;;4977106;28;20043;-63
2022/06/03 11:59:43;;;;;;;7.05;3.03;;;22.60;75.10;;;;;;4988062;28;20054;-62
2022/06/03 12:02:20;;;;;;;5.25;2.28;;;22.60;74.50;;;;;;4983059;28;20046;-63
2022/06/03 12:04:47;;;;;;;3.20;2.25;;;22.50;75.10;;;;;;4983309;28;20043;-61
2022/06/03 12:07:15;;;;;;;3.65;2.00;;;22.50;74.30;;;;;;4976790;28;20047;-58
2022/06/03 12:09:55;;;;;;;3.05;1.90;;;22.70;74.90;;;;;;4979630;28;20561;-57
2022/06/03 12:15:30;;;;;;;3.28;1.92;;;23.00;71.30;;;;;;4981135;28;20073;-60
2022/06/03 12:18:11;;;;;;;5.40;2.30;;;23.00;74.30;;;;;;4977342;28;20490;-63
2022/06/03 12:20:49;;;;;;;4.05;2.45;;;23.10;75.70;;;;;;4978936;28;20402;-59
2022/06/03 12:23:14;;;;;;;7.10;2.53;;;23.30;78.20;;;;;;4983560;28;20409;-59
2022/06/03 12:25:40;;;;;;;5.40;2.90;;;23.20;79.60;;;;;;4977602;28;20039;-61
2022/06/03 12:28:15;;;;;;;6.45;2.60;;;23.40;80.90;;;;;;4997548;28;20069;-65
2022/06/03 12:30:54;;;;;;;3.55;2.17;;;23.50;80.90;;;;;;4984044;28;20046;-60
2022/06/03 12:33:33;;;;;;;3.60;2.50;;;23.70;79.10;;;;;;4976025;28;20050;-63
2022/06/03 12:36:05;;;;;;;7.75;2.75;;;23.60;76.70;;;;;;4981265;28;20178;-64
2022/06/03 12:38:43;;;;;;;3.97;1.80;;;23.80;78.00;;;;;;4978423;28;20047;-61
2022/06/03 12:41:09;;;;;;;5.00;2.08;;;23.80;80.10;;;;;;4995930;28;20049;-61
2022/06/03 12:43:57;;;;;;;8.00;2.65;;;23.70;77.90;;;;;;4982544;28;20280;-60
2022/06/03 12:46:35;;;;;;;3.67;2.25;;;23.80;75.90;;;;;;4980123;28;20042;-62
2022/06/03 12:49:01;;;;;;;3.13;2.03;;;23.80;76.10;;;;;;4978004;28;20034;-63
2022/06/03 12:51:32;;;;;;;4.63;1.75;;;23.70;76.90;;;;;;4981936;28;20097;-61
2022/06/03 12:54:06;;;;;;;3.70;1.88;;;23.70;77.30;;;;;;4980244;28;20549;-62
2022/06/03 12:56:37;;;;;;;2.45;1.58;;;23.80;77.50;;;;;;4985670;28;20085;-61
2022/06/03 12:59:23;;;;;;;3.92;1.80;;;23.80;76.00;;;;;;4981571;28;20034;-60
2022/06/03 13:02:13;;;;;;;3.42;1.70;;;23.90;77.00;;;;;;4980761;28;20038;-60
2022/06/03 13:04:40;;;;;;;6.28;1.70;;;24.10;76.30;;;;;;4983467;28;20526;-60
2022/06/03 13:07:33;;;;;;;2.60;1.45;;;24.20;77.20;;;;;;4979876;28;20527;-60
2022/06/03 13:10:02;;;;;;;4.30;1.88;;;24.30;76.20;;;;;;4981296;28;20409;-62
2022/06/03 13:12:44;;;;;;;3.30;1.10;;;24.40;73.90;;;;;;4982682;28;20058;-59
2022/06/03 13:15:22;;;;;;;3.58;1.27;;;24.20;72.80;;;;;;4982196;28;20074;-59
2022/06/03 13:17:59;;;;;;;7.32;1.58;;;24.20;72.90;;;;;;4983690;28;20049;-62
2022/06/03 13:20:45;;;;;;;4.97;1.58;;;24.10;72.30;;;;;;4977567;28;20035;-61
2022/06/03 13:23:36;;;;;;;4.47;1.55;;;24.00;71.90;;;;;;4977193;28;20424;-60
2022/06/03 13:26:23;;;;;;;4.47;1.60;;;23.90;72.80;;;;;;4978821;28;20509;-61
2022/06/03 13:28:51;;;;;;;4.28;1.40;;;23.60;72.10;;;;;;4987444;28;20085;-61
2022/06/03 13:31:40;;;;;;;3.25;1.38;;;23.50;73.90;;;;;;4982643;28;20035;-58
2022/06/03 13:34:08;;;;;;;5.10;1.70;;;23.50;75.80;;;;;;4985419;28;20049;-60
2022/06/03 13:36:51;;;;;;;6.20;1.30;;;23.60;74.60;;;;;;4977696;28;20070;-59
2022/06/03 13:39:28;;;;;;;4.80;1.65;;;23.40;73.80;;;;;;4986050;28;20505;-60
2022/06/03 13:44:53;;;;;;;3.45;1.27;;;22.90;74.70;;;;;;4970176;28;20127;-59
2022/06/03 13:47:19;;;;;;;5.28;1.80;;;22.70;77.10;;;;;;4972926;28;20092;-56
2022/06/03 13:49:53;;;;;;;3.67;1.60;;;22.80;77.60;;;;;;4977804;28;20054;-59
2022/06/03 13:52:34;;;;;;;5.88;1.70;;;22.90;75.30;;;;;;4986446;28;20038;-59
2022/06/03 13:55:25;;;;;;;5.47;1.60;;;22.90;77.40;;;;;;4974735;28;20038;-60
2022/06/03 13:58:11;;;;;;;2.53;1.20;;;23.20;75.90;;;;;;4971440;28;20042;-57
2022/06/03 14:00:49;;;;;;;4.22;1.40;;;23.30;74.80;;;;;;4979416;28;20038;-60
2022/06/03 14:03:33;;;;;;;4.90;1.67;;;23.40;73.70;;;;;;4970892;28;20035;-57
2022/06/03 14:06:27;;;;;;;3.70;1.45;;;23.40;72.30;;;;;;4976244;28;20134;-59
2022/06/03 14:09:02;;;;;;;5.28;1.70;;;23.40;72.50;;;;;;4969635;28;20042;-60
2022/06/03 14:11:33;;;;;;;2.85;1.00;;;23.50;71.90;;;;;;4986474;28;20042;-61
2022/06/03 14:14:26;;;;;;;3.22;1.23;;;23.50;70.60;;;;;;4972818;28;20050;-62
2022/06/03 14:17:10;;;;;;;2.87;1.27;;;23.40;69.40;;;;;;4951304;28;20058;-59
2022/06/03 14:19:51;;;;;;;4.13;1.30;;;23.40;68.50;;;;;;4977733;28;20392;-61
2022/06/03 14:22:40;;;;;;;2.50;1.00;;;23.40;67.30;;;;;;4988431;28;20146;-61
2022/06/03 14:25:11;;;;;;;6.10;1.00;;;23.20;68.00;;;;;;4972924;28;20047;-59
2022/06/03 14:27:51;;;;;;;2.90;1.10;;;23.10;64.70;;;;;;4974836;28;20061;-61
2022/06/03 14:30:39;;;;;;;2.80;1.10;;;22.90;64.60;;;;;;4980119;28;20887;-57